sensor_id;sensor_type;location;lat;lon;timestamp;P1;durP1;ratioP1;P2;durP2;ratioP2
40373;SDS011;26079;45.958;12.492;2022-09-14T00:00:50;3.33;;;3.03;;
40373;SDS011;26079;45.958;12.492;2022-09-14T00:03:17;2.38;;;2.25;;
40373;SDS011;26079;45.958;12.492;2022-09-14T00:05:43;2.58;;;2.30;;
40373;SDS011;26079;45.958;12.492;2022-09-14T00:08:09;2.38;;;1.80;;
40373;SDS011;26079;45.958;12.492;2022-09-14T00:10:39;2.08;;;1.92;;
40373;SDS011;26079;45.958;12.492;2022-09-14T00:13:06;2.53;;;2.10;;
40373;SDS011;26079;45.958;12.492;2022-09-14T00:15:36;2.58;;;2.38;;
40373;SDS011;26079;45.958;12.492;2022-09-14T00:18:04;2.72;;;2.53;;
40373;SDS011;26079;45.958;12.492;2022-09-14T00:20:30;2.72;;;2.47;;
40373;SDS011;26079;45.958;12.492;2022-09-14T00:22:56;2.75;;;2.55;;
40373;SDS011;26079;45.958;12.492;2022-09-14T00:25:22;3.20;;;2.42;;
40373;SDS011;26079;45.958;12.492;2022-09-14T00:27:50;3.03;;;2.20;;
40373;SDS011;26079;45.958;12.492;2022-09-14T00:30:19;2.33;;;2.13;;
40373;SDS011;26079;45.958;12.492;2022-09-14T00:32:45;3.08;;;2.17;;
40373;SDS011;26079;45.958;12.492;2022-09-14T00:35:11;3.17;;;2.75;;
40373;SDS011;26079;45.958;12.492;2022-09-14T00:37:37;2.65;;;2.45;;
40373;SDS011;26079;45.958;12.492;2022-09-14T00:40:04;2.33;;;2.13;;
40373;SDS011;26079;45.958;12.492;2022-09-14T00:42:30;2.72;;;2.33;;
40373;SDS011;26079;45.958;12.492;2022-09-14T00:44:57;2.10;;;1.90;;
40373;SDS011;26079;45.958;12.492;2022-09-14T00:47:25;2.40;;;2.20;;
40373;SDS011;26079;45.958;12.492;2022-09-14T00:49:53;2.72;;;2.30;;
40373;SDS011;26079;45.958;12.492;2022-09-14T00:52:21;3.17;;;2.55;;
40373;SDS011;26079;45.958;12.492;2022-09-14T00:57:18;2.20;;;1.95;;
40373;SDS011;26079;45.958;12.492;2022-09-14T00:59:45;2.55;;;2.10;;
40373;SDS011;26079;45.958;12.492;2022-09-14T01:02:14;2.38;;;2.17;;
40373;SDS011;26079;45.958;12.492;2022-09-14T01:04:41;2.92;;;2.40;;
40373;SDS011;26079;45.958;12.492;2022-09-14T01:21:09;3.28;;;2.45;;
40373;SDS011;26079;45.958;12.492;2022-09-14T01:23:41;4.78;;;2.90;;
40373;SDS011;26079;45.958;12.492;2022-09-14T01:26:39;2.60;;;2.40;;
40373;SDS011;26079;45.958;12.492;2022-09-14T01:32:16;6.32;;;2.45;;
40373;SDS011;26079;45.958;12.492;2022-09-14T01:37:52;3.17;;;2.88;;
40373;SDS011;26079;45.958;12.492;2022-09-14T01:40:29;2.70;;;2.42;;
40373;SDS011;26079;45.958;12.492;2022-09-14T01:43:03;2.65;;;2.45;;
40373;SDS011;26079;45.958;12.492;2022-09-14T01:45:48;3.67;;;2.72;;
40373;SDS011;26079;45.958;12.492;2022-09-14T01:48:20;3.22;;;2.92;;
40373;SDS011;26079;45.958;12.492;2022-09-14T01:50:52;3.55;;;3.25;;
40373;SDS011;26079;45.958;12.492;2022-09-14T01:53:31;4.43;;;2.80;;
40373;SDS011;26079;45.958;12.492;2022-09-14T01:56:04;3.35;;;3.03;;
40373;SDS011;26079;45.958;12.492;2022-09-14T01:58:51;5.70;;;3.00;;
40373;SDS011;26079;45.958;12.492;2022-09-14T02:01:29;5.53;;;4.72;;
40373;SDS011;26079;45.958;12.492;2022-09-14T02:04:01;3.72;;;3.10;;
40373;SDS011;26079;45.958;12.492;2022-09-14T02:06:39;3.55;;;3.25;;
40373;SDS011;26079;45.958;12.492;2022-09-14T02:09:14;7.05;;;5.20;;
40373;SDS011;26079;45.958;12.492;2022-09-14T02:11:43;4.13;;;3.15;;
40373;SDS011;26079;45.958;12.492;2022-09-14T02:14:10;4.25;;;2.95;;
40373;SDS011;26079;45.958;12.492;2022-09-14T02:16:36;7.63;;;2.88;;
40373;SDS011;26079;45.958;12.492;2022-09-14T02:19:02;3.50;;;3.15;;
40373;SDS011;26079;45.958;12.492;2022-09-14T02:21:29;4.00;;;2.88;;
40373;SDS011;26079;45.958;12.492;2022-09-14T02:24:00;4.07;;;3.10;;
40373;SDS011;26079;45.958;12.492;2022-09-14T02:26:26;3.92;;;3.53;;
40373;SDS011;26079;45.958;12.492;2022-09-14T02:28:53;2.97;;;2.58;;
40373;SDS011;26079;45.958;12.492;2022-09-14T02:34:11;5.18;;;3.10;;
40373;SDS011;26079;45.958;12.492;2022-09-14T02:37:12;4.55;;;3.03;;
40373;SDS011;26079;45.958;12.492;2022-09-14T02:39:53;3.08;;;2.88;;
40373;SDS011;26079;45.958;12.492;2022-09-14T02:48:27;3.50;;;3.20;;
40373;SDS011;26079;45.958;12.492;2022-09-14T02:53:52;4.22;;;3.25;;
40373;SDS011;26079;45.958;12.492;2022-09-14T02:56:18;3.00;;;2.80;;
40373;SDS011;26079;45.958;12.492;2022-09-14T02:58:44;6.75;;;2.97;;
40373;SDS011;26079;45.958;12.492;2022-09-14T03:01:12;3.25;;;2.92;;
40373;SDS011;26079;45.958;12.492;2022-09-14T03:03:39;4.85;;;2.70;;
40373;SDS011;26079;45.958;12.492;2022-09-14T03:06:05;3.40;;;2.88;;
40373;SDS011;26079;45.958;12.492;2022-09-14T03:08:31;6.32;;;2.85;;
40373;SDS011;26079;45.958;12.492;2022-09-14T03:10:57;4.72;;;2.60;;
40373;SDS011;26079;45.958;12.492;2022-09-14T03:13:23;4.22;;;2.63;;
40373;SDS011;26079;45.958;12.492;2022-09-14T03:15:49;3.90;;;3.40;;
40373;SDS011;26079;45.958;12.492;2022-09-14T03:18:15;3.10;;;2.88;;
40373;SDS011;26079;45.958;12.492;2022-09-14T03:20:41;2.70;;;2.50;;
40373;SDS011;26079;45.958;12.492;2022-09-14T03:23:07;2.58;;;2.38;;
40373;SDS011;26079;45.958;12.492;2022-09-14T03:25:39;2.90;;;2.60;;
40373;SDS011;26079;45.958;12.492;2022-09-14T03:28:06;4.30;;;2.25;;
40373;SDS011;26079;45.958;12.492;2022-09-14T03:30:33;2.95;;;2.75;;
40373;SDS011;26079;45.958;12.492;2022-09-14T03:33:00;2.80;;;2.50;;
40373;SDS011;26079;45.958;12.492;2022-09-14T03:35:28;3.78;;;3.28;;
40373;SDS011;26079;45.958;12.492;2022-09-14T03:37:55;3.30;;;3.00;;
40373;SDS011;26079;45.958;12.492;2022-09-14T03:40:22;2.47;;;2.28;;
40373;SDS011;26079;45.958;12.492;2022-09-14T03:42:48;3.08;;;2.78;;
40373;SDS011;26079;45.958;12.492;2022-09-14T03:45:15;2.78;;;2.58;;
40373;SDS011;26079;45.958;12.492;2022-09-14T03:47:42;3.08;;;2.78;;
40373;SDS011;26079;45.958;12.492;2022-09-14T03:50:08;4.00;;;2.92;;
40373;SDS011;26079;45.958;12.492;2022-09-14T03:52:36;4.00;;;3.30;;
40373;SDS011;26079;45.958;12.492;2022-09-14T03:55:06;4.30;;;3.25;;
40373;SDS011;26079;45.958;12.492;2022-09-14T03:57:33;3.72;;;3.25;;
40373;SDS011;26079;45.958;12.492;2022-09-14T03:59:59;3.20;;;2.85;;
40373;SDS011;26079;45.958;12.492;2022-09-14T04:02:24;8.00;;;3.20;;
40373;SDS011;26079;45.958;12.492;2022-09-14T04:04:51;3.58;;;3.03;;
40373;SDS011;26079;45.958;12.492;2022-09-14T04:07:17;3.53;;;2.92;;
40373;SDS011;26079;45.958;12.492;2022-09-14T04:09:43;3.70;;;2.88;;
40373;SDS011;26079;45.958;12.492;2022-09-14T04:12:09;4.22;;;2.90;;
40373;SDS011;26079;45.958;12.492;2022-09-14T04:14:35;3.45;;;3.15;;
40373;SDS011;26079;45.958;12.492;2022-09-14T04:17:00;2.90;;;2.70;;
40373;SDS011;26079;45.958;12.492;2022-09-14T04:19:27;9.32;;;2.92;;
40373;SDS011;26079;45.958;12.492;2022-09-14T04:21:52;3.28;;;3.05;;
40373;SDS011;26079;45.958;12.492;2022-09-14T04:24:18;4.40;;;3.30;;
40373;SDS011;26079;45.958;12.492;2022-09-14T04:26:44;4.03;;;3.40;;
40373;SDS011;26079;45.958;12.492;2022-09-14T04:29:10;3.50;;;3.20;;
40373;SDS011;26079;45.958;12.492;2022-09-14T04:31:36;3.17;;;2.53;;
40373;SDS011;26079;45.958;12.492;2022-09-14T04:34:03;4.78;;;3.20;;
40373;SDS011;26079;45.958;12.492;2022-09-14T04:36:29;3.58;;;3.28;;
40373;SDS011;26079;45.958;12.492;2022-09-14T04:38:58;3.75;;;3.40;;
40373;SDS011;26079;45.958;12.492;2022-09-14T04:41:25;4.72;;;3.78;;
40373;SDS011;26079;45.958;12.492;2022-09-14T04:43:53;4.30;;;3.90;;
40373;SDS011;26079;45.958;12.492;2022-09-14T04:46:20;4.38;;;3.05;;
40373;SDS011;26079;45.958;12.492;2022-09-14T04:48:48;3.45;;;3.08;;
40373;SDS011;26079;45.958;12.492;2022-09-14T04:51:16;4.38;;;3.40;;
40373;SDS011;26079;45.958;12.492;2022-09-14T04:53:44;5.32;;;3.95;;
40373;SDS011;26079;45.958;12.492;2022-09-14T04:56:12;4.60;;;4.15;;
40373;SDS011;26079;45.958;12.492;2022-09-14T04:58:41;4.45;;;4.15;;
40373;SDS011;26079;45.958;12.492;2022-09-14T05:01:09;4.70;;;4.30;;
40373;SDS011;26079;45.958;12.492;2022-09-14T05:03:36;4.65;;;4.28;;
40373;SDS011;26079;45.958;12.492;2022-09-14T05:06:04;4.00;;;3.70;;
40373;SDS011;26079;45.958;12.492;2022-09-14T05:08:31;5.13;;;4.18;;
40373;SDS011;26079;45.958;12.492;2022-09-14T05:10:57;5.28;;;4.70;;
40373;SDS011;26079;45.958;12.492;2022-09-14T05:13:26;4.65;;;4.25;;
40373;SDS011;26079;45.958;12.492;2022-09-14T05:15:51;4.82;;;4.03;;
40373;SDS011;26079;45.958;12.492;2022-09-14T05:18:17;8.27;;;4.13;;
40373;SDS011;26079;45.958;12.492;2022-09-14T05:20:43;3.90;;;3.50;;
40373;SDS011;26079;45.958;12.492;2022-09-14T05:23:10;3.78;;;3.47;;
40373;SDS011;26079;45.958;12.492;2022-09-14T05:25:38;4.97;;;4.47;;
40373;SDS011;26079;45.958;12.492;2022-09-14T05:28:03;3.65;;;3.35;;
40373;SDS011;26079;45.958;12.492;2022-09-14T05:30:29;4.18;;;3.70;;
40373;SDS011;26079;45.958;12.492;2022-09-14T05:32:55;4.80;;;4.35;;
40373;SDS011;26079;45.958;12.492;2022-09-14T05:35:20;4.70;;;3.58;;
40373;SDS011;26079;45.958;12.492;2022-09-14T05:37:46;4.13;;;3.78;;
40373;SDS011;26079;45.958;12.492;2022-09-14T05:40:15;3.60;;;3.30;;
40373;SDS011;26079;45.958;12.492;2022-09-14T05:42:41;3.55;;;3.25;;
40373;SDS011;26079;45.958;12.492;2022-09-14T05:45:06;5.97;;;4.13;;
40373;SDS011;26079;45.958;12.492;2022-09-14T05:47:32;4.30;;;3.90;;
40373;SDS011;26079;45.958;12.492;2022-09-14T05:49:58;4.63;;;3.35;;
40373;SDS011;26079;45.958;12.492;2022-09-14T05:52:24;5.22;;;3.88;;
40373;SDS011;26079;45.958;12.492;2022-09-14T05:54:49;3.25;;;2.95;;
40373;SDS011;26079;45.958;12.492;2022-09-14T05:57:15;4.97;;;3.40;;
40373;SDS011;26079;45.958;12.492;2022-09-14T05:59:41;3.53;;;2.92;;
40373;SDS011;26079;45.958;12.492;2022-09-14T06:02:09;3.45;;;3.15;;
40373;SDS011;26079;45.958;12.492;2022-09-14T06:04:34;3.78;;;3.47;;
40373;SDS011;26079;45.958;12.492;2022-09-14T06:07:00;3.28;;;3.08;;
40373;SDS011;26079;45.958;12.492;2022-09-14T06:09:26;3.78;;;3.47;;
40373;SDS011;26079;45.958;12.492;2022-09-14T06:11:51;4.10;;;3.80;;
40373;SDS011;26079;45.958;12.492;2022-09-14T06:14:17;3.90;;;3.38;;
40373;SDS011;26079;45.958;12.492;2022-09-14T06:16:44;6.25;;;3.63;;
40373;SDS011;26079;45.958;12.492;2022-09-14T06:19:10;4.25;;;3.85;;
40373;SDS011;26079;45.958;12.492;2022-09-14T06:21:38;4.18;;;3.72;;
40373;SDS011;26079;45.958;12.492;2022-09-14T06:24:04;4.13;;;3.47;;
40373;SDS011;26079;45.958;12.492;2022-09-14T06:26:30;3.95;;;3.63;;
40373;SDS011;26079;45.958;12.492;2022-09-14T06:28:56;5.40;;;3.92;;
40373;SDS011;26079;45.958;12.492;2022-09-14T06:31:22;4.38;;;3.72;;
40373;SDS011;26079;45.958;12.492;2022-09-14T06:33:49;5.75;;;4.45;;
40373;SDS011;26079;45.958;12.492;2022-09-14T06:36:16;6.55;;;4.30;;
40373;SDS011;26079;45.958;12.492;2022-09-14T06:38:44;5.35;;;4.70;;
40373;SDS011;26079;45.958;12.492;2022-09-14T06:41:12;5.00;;;4.60;;
40373;SDS011;26079;45.958;12.492;2022-09-14T06:43:42;5.30;;;3.97;;
40373;SDS011;26079;45.958;12.492;2022-09-14T06:48:41;6.97;;;4.00;;
40373;SDS011;26079;45.958;12.492;2022-09-14T06:53:45;7.70;;;4.50;;
40373;SDS011;26079;45.958;12.492;2022-09-14T06:56:12;5.70;;;4.90;;
40373;SDS011;26079;45.958;12.492;2022-09-14T06:58:38;12.07;;;5.43;;
40373;SDS011;26079;45.958;12.492;2022-09-14T07:01:04;5.43;;;4.45;;
40373;SDS011;26079;45.958;12.492;2022-09-14T07:03:40;6.75;;;5.63;;
40373;SDS011;26079;45.958;12.492;2022-09-14T07:06:20;4.63;;;4.22;;
40373;SDS011;26079;45.958;12.492;2022-09-14T07:08:48;6.40;;;3.90;;
40373;SDS011;26079;45.958;12.492;2022-09-14T07:11:15;4.43;;;4.05;;
40373;SDS011;26079;45.958;12.492;2022-09-14T07:13:42;4.70;;;4.07;;
40373;SDS011;26079;45.958;12.492;2022-09-14T07:16:09;6.13;;;4.50;;
40373;SDS011;26079;45.958;12.492;2022-09-14T07:18:36;5.07;;;3.78;;
40373;SDS011;26079;45.958;12.492;2022-09-14T07:23:28;5.03;;;3.72;;
40373;SDS011;26079;45.958;12.492;2022-09-14T07:26:02;4.22;;;3.70;;
40373;SDS011;26079;45.958;12.492;2022-09-14T07:28:33;5.45;;;4.95;;
40373;SDS011;26079;45.958;12.492;2022-09-14T07:30:59;4.00;;;3.63;;
40373;SDS011;26079;45.958;12.492;2022-09-14T07:33:26;5.72;;;4.20;;
40373;SDS011;26079;45.958;12.492;2022-09-14T07:35:52;3.88;;;3.60;;
40373;SDS011;26079;45.958;12.492;2022-09-14T07:38:18;5.25;;;3.97;;
40373;SDS011;26079;45.958;12.492;2022-09-14T07:40:44;5.35;;;3.53;;
40373;SDS011;26079;45.958;12.492;2022-09-14T07:43:11;3.97;;;3.45;;
40373;SDS011;26079;45.958;12.492;2022-09-14T07:45:36;4.80;;;3.40;;
40373;SDS011;26079;45.958;12.492;2022-09-14T07:48:03;2.88;;;2.65;;
40373;SDS011;26079;45.958;12.492;2022-09-14T07:50:29;6.95;;;3.97;;
40373;SDS011;26079;45.958;12.492;2022-09-14T07:52:55;10.13;;;3.40;;
40373;SDS011;26079;45.958;12.492;2022-09-14T07:55:21;5.30;;;3.03;;
40373;SDS011;26079;45.958;12.492;2022-09-14T07:57:46;7.45;;;3.25;;
40373;SDS011;26079;45.958;12.492;2022-09-14T08:00:12;3.80;;;2.95;;
40373;SDS011;26079;45.958;12.492;2022-09-14T08:02:39;6.93;;;2.70;;
40373;SDS011;26079;45.958;12.492;2022-09-14T08:05:05;2.65;;;2.45;;
40373;SDS011;26079;45.958;12.492;2022-09-14T08:07:31;5.07;;;3.17;;
40373;SDS011;26079;45.958;12.492;2022-09-14T08:09:57;2.35;;;2.15;;
40373;SDS011;26079;45.958;12.492;2022-09-14T08:12:22;4.45;;;2.15;;
40373;SDS011;26079;45.958;12.492;2022-09-14T08:14:48;1.40;;;1.30;;
40373;SDS011;26079;45.958;12.492;2022-09-14T08:17:16;3.90;;;2.72;;
40373;SDS011;26079;45.958;12.492;2022-09-14T08:19:41;2.13;;;1.63;;
40373;SDS011;26079;45.958;12.492;2022-09-14T08:22:07;1.65;;;1.50;;
40373;SDS011;26079;45.958;12.492;2022-09-14T08:24:33;2.90;;;1.90;;
40373;SDS011;26079;45.958;12.492;2022-09-14T08:26:59;1.70;;;1.48;;
40373;SDS011;26079;45.958;12.492;2022-09-14T08:29:24;1.52;;;1.35;;
40373;SDS011;26079;45.958;12.492;2022-09-14T08:31:50;2.80;;;1.10;;
40373;SDS011;26079;45.958;12.492;2022-09-14T08:34:17;2.47;;;1.25;;
40373;SDS011;26079;45.958;12.492;2022-09-14T08:36:44;3.05;;;1.90;;
40373;SDS011;26079;45.958;12.492;2022-09-14T08:39:11;1.65;;;1.55;;
40373;SDS011;26079;45.958;12.492;2022-09-14T08:47:09;2.45;;;1.40;;
40373;SDS011;26079;45.958;12.492;2022-09-14T08:52:50;1.20;;;1.08;;
40373;SDS011;26079;45.958;12.492;2022-09-14T09:00:48;1.35;;;0.98;;
40373;SDS011;26079;45.958;12.492;2022-09-14T09:06:06;1.02;;;0.90;;
40373;SDS011;26079;45.958;12.492;2022-09-14T09:11:16;1.60;;;0.88;;
40373;SDS011;26079;45.958;12.492;2022-09-14T09:13:43;1.77;;;1.27;;
40373;SDS011;26079;45.958;12.492;2022-09-14T09:16:12;0.73;;;0.70;;
40373;SDS011;26079;45.958;12.492;2022-09-14T09:18:56;1.88;;;1.00;;
40373;SDS011;26079;45.958;12.492;2022-09-14T09:21:30;2.50;;;1.20;;
40373;SDS011;26079;45.958;12.492;2022-09-14T09:24:25;1.30;;;1.10;;
40373;SDS011;26079;45.958;12.492;2022-09-14T09:27:00;0.95;;;0.93;;
40373;SDS011;26079;45.958;12.492;2022-09-14T09:29:29;2.10;;;1.08;;
40373;SDS011;26079;45.958;12.492;2022-09-14T09:31:55;2.42;;;0.73;;
40373;SDS011;26079;45.958;12.492;2022-09-14T09:34:26;1.10;;;0.70;;
40373;SDS011;26079;45.958;12.492;2022-09-14T09:36:54;2.17;;;1.50;;
40373;SDS011;26079;45.958;12.492;2022-09-14T09:39:20;2.80;;;1.02;;
40373;SDS011;26079;45.958;12.492;2022-09-14T09:44:23;1.73;;;0.70;;
40373;SDS011;26079;45.958;12.492;2022-09-14T09:46:55;2.83;;;1.00;;
40373;SDS011;26079;45.958;12.492;2022-09-14T09:49:30;2.63;;;1.13;;
40373;SDS011;26079;45.958;12.492;2022-09-14T09:52:12;4.03;;;1.63;;
40373;SDS011;26079;45.958;12.492;2022-09-14T09:54:41;2.63;;;1.27;;
40373;SDS011;26079;45.958;12.492;2022-09-14T09:57:21;3.28;;;1.63;;
40373;SDS011;26079;45.958;12.492;2022-09-14T10:00:07;1.33;;;1.20;;
40373;SDS011;26079;45.958;12.492;2022-09-14T10:02:32;1.35;;;1.25;;
40373;SDS011;26079;45.958;12.492;2022-09-14T10:05:00;5.78;;;3.08;;
40373;SDS011;26079;45.958;12.492;2022-09-14T10:10:05;3.08;;;2.50;;
40373;SDS011;26079;45.958;12.492;2022-09-14T10:12:35;4.00;;;3.60;;
40373;SDS011;26079;45.958;12.492;2022-09-14T10:17:31;2.55;;;1.45;;
40373;SDS011;26079;45.958;12.492;2022-09-14T10:19:57;2.08;;;1.80;;
40373;SDS011;26079;45.958;12.492;2022-09-14T10:22:25;1.40;;;0.93;;
40373;SDS011;26079;45.958;12.492;2022-09-14T10:25:02;0.88;;;0.88;;
40373;SDS011;26079;45.958;12.492;2022-09-14T10:30:21;1.70;;;1.20;;
40373;SDS011;26079;45.958;12.492;2022-09-14T10:32:59;2.25;;;1.63;;
40373;SDS011;26079;45.958;12.492;2022-09-14T10:35:50;1.33;;;1.15;;
40373;SDS011;26079;45.958;12.492;2022-09-14T10:38:30;3.17;;;1.20;;
40373;SDS011;26079;45.958;12.492;2022-09-14T10:46:29;3.22;;;1.70;;
40373;SDS011;26079;45.958;12.492;2022-09-14T10:49:48;2.33;;;1.27;;
40373;SDS011;26079;45.958;12.492;2022-09-14T10:58:01;1.15;;;1.05;;
40373;SDS011;26079;45.958;12.492;2022-09-14T11:09:35;1.85;;;1.27;;
40373;SDS011;26079;45.958;12.492;2022-09-14T11:12:22;2.90;;;1.90;;
40373;SDS011;26079;45.958;12.492;2022-09-14T11:31:43;6.43;;;3.25;;
40373;SDS011;26079;45.958;12.492;2022-09-14T11:34:07;2.08;;;1.88;;
40373;SDS011;26079;45.958;12.492;2022-09-14T11:36:46;6.05;;;2.03;;
40373;SDS011;26079;45.958;12.492;2022-09-14T11:39:25;6.72;;;5.72;;
40373;SDS011;26079;45.958;12.492;2022-09-14T11:41:58;2.05;;;1.88;;
40373;SDS011;26079;45.958;12.492;2022-09-14T11:47:03;4.25;;;2.88;;
40373;SDS011;26079;45.958;12.492;2022-09-14T11:49:33;4.07;;;3.55;;
40373;SDS011;26079;45.958;12.492;2022-09-14T11:52:19;3.28;;;2.13;;
40373;SDS011;26079;45.958;12.492;2022-09-14T11:54:48;10.18;;;7.00;;
40373;SDS011;26079;45.958;12.492;2022-09-14T11:57:16;4.55;;;2.92;;
40373;SDS011;26079;45.958;12.492;2022-09-14T12:15:17;3.22;;;2.92;;
40373;SDS011;26079;45.958;12.492;2022-09-14T12:23:12;5.50;;;2.97;;
40373;SDS011;26079;45.958;12.492;2022-09-14T13:04:29;2.50;;;1.92;;
40373;SDS011;26079;45.958;12.492;2022-09-14T13:06:58;3.58;;;1.85;;
40373;SDS011;26079;45.958;12.492;2022-09-14T13:09:27;3.58;;;2.17;;
40373;SDS011;26079;45.958;12.492;2022-09-14T13:11:59;5.30;;;1.52;;
40373;SDS011;26079;45.958;12.492;2022-09-14T13:14:47;2.33;;;2.13;;
40373;SDS011;26079;45.958;12.492;2022-09-14T13:17:15;3.53;;;2.00;;
40373;SDS011;26079;45.958;12.492;2022-09-14T13:19:41;2.13;;;1.80;;
40373;SDS011;26079;45.958;12.492;2022-09-14T13:22:16;4.25;;;2.22;;
40373;SDS011;26079;45.958;12.492;2022-09-14T13:24:43;3.08;;;2.42;;
40373;SDS011;26079;45.958;12.492;2022-09-14T13:27:15;3.72;;;2.63;;
40373;SDS011;26079;45.958;12.492;2022-09-14T13:29:59;3.13;;;2.30;;
40373;SDS011;26079;45.958;12.492;2022-09-14T13:32:29;3.67;;;2.35;;
40373;SDS011;26079;45.958;12.492;2022-09-14T13:34:58;3.78;;;3.13;;
40373;SDS011;26079;45.958;12.492;2022-09-14T13:37:25;3.55;;;2.90;;
40373;SDS011;26079;45.958;12.492;2022-09-14T13:39:52;3.22;;;2.10;;
40373;SDS011;26079;45.958;12.492;2022-09-14T13:42:20;2.90;;;2.05;;
40373;SDS011;26079;45.958;12.492;2022-09-14T13:44:47;2.97;;;2.35;;
40373;SDS011;26079;45.958;12.492;2022-09-14T13:47:14;5.22;;;2.58;;
40373;SDS011;26079;45.958;12.492;2022-09-14T13:49:43;2.63;;;2.33;;
40373;SDS011;26079;45.958;12.492;2022-09-14T13:52:17;13.18;;;2.25;;
40373;SDS011;26079;45.958;12.492;2022-09-14T13:54:43;2.17;;;2.03;;
40373;SDS011;26079;45.958;12.492;2022-09-14T13:57:10;10.52;;;1.95;;
40373;SDS011;26079;45.958;12.492;2022-09-14T13:59:36;4.35;;;2.25;;
40373;SDS011;26079;45.958;12.492;2022-09-14T14:02:58;2.53;;;2.00;;
40373;SDS011;26079;45.958;12.492;2022-09-14T14:05:30;2.38;;;1.67;;
40373;SDS011;26079;45.958;12.492;2022-09-14T14:07:59;3.60;;;2.63;;
40373;SDS011;26079;45.958;12.492;2022-09-14T14:10:33;3.03;;;2.22;;
40373;SDS011;26079;45.958;12.492;2022-09-14T14:13:03;4.20;;;2.20;;
40373;SDS011;26079;45.958;12.492;2022-09-14T14:15:31;4.32;;;1.83;;
40373;SDS011;26079;45.958;12.492;2022-09-14T14:18:00;3.25;;;1.67;;
40373;SDS011;26079;45.958;12.492;2022-09-14T14:21:02;2.78;;;2.15;;
40373;SDS011;26079;45.958;12.492;2022-09-14T14:26:54;3.28;;;1.92;;
40373;SDS011;26079;45.958;12.492;2022-09-14T14:29:21;3.38;;;2.17;;
40373;SDS011;26079;45.958;12.492;2022-09-14T14:31:47;3.97;;;2.13;;
40373;SDS011;26079;45.958;12.492;2022-09-14T14:34:18;4.10;;;2.78;;
40373;SDS011;26079;45.958;12.492;2022-09-14T14:36:53;9.38;;;2.95;;
40373;SDS011;26079;45.958;12.492;2022-09-14T14:39:21;2.63;;;2.13;;
40373;SDS011;26079;45.958;12.492;2022-09-14T14:41:48;4.28;;;2.28;;
40373;SDS011;26079;45.958;12.492;2022-09-14T14:44:17;3.20;;;2.22;;
40373;SDS011;26079;45.958;12.492;2022-09-14T14:46:46;2.60;;;2.10;;
40373;SDS011;26079;45.958;12.492;2022-09-14T14:49:12;2.90;;;2.35;;
40373;SDS011;26079;45.958;12.492;2022-09-14T14:51:44;4.63;;;3.70;;
40373;SDS011;26079;45.958;12.492;2022-09-14T14:54:10;4.15;;;2.80;;
40373;SDS011;26079;45.958;12.492;2022-09-14T14:56:40;2.70;;;2.50;;
40373;SDS011;26079;45.958;12.492;2022-09-14T14:59:27;3.30;;;3.00;;
40373;SDS011;26079;45.958;12.492;2022-09-14T15:01:54;2.88;;;2.40;;
40373;SDS011;26079;45.958;12.492;2022-09-14T15:04:38;6.68;;;2.47;;
40373;SDS011;26079;45.958;12.492;2022-09-14T15:07:04;2.40;;;2.20;;
40373;SDS011;26079;45.958;12.492;2022-09-14T15:09:29;2.83;;;2.17;;
40373;SDS011;26079;45.958;12.492;2022-09-14T15:11:56;2.90;;;2.20;;
40373;SDS011;26079;45.958;12.492;2022-09-14T15:14:22;4.80;;;2.58;;
40373;SDS011;26079;45.958;12.492;2022-09-14T15:16:49;3.95;;;2.60;;
40373;SDS011;26079;45.958;12.492;2022-09-14T15:19:18;3.72;;;2.40;;
40373;SDS011;26079;45.958;12.492;2022-09-14T15:21:44;9.70;;;2.75;;
40373;SDS011;26079;45.958;12.492;2022-09-14T15:24:10;5.85;;;2.90;;
40373;SDS011;26079;45.958;12.492;2022-09-14T15:26:41;6.38;;;2.60;;
40373;SDS011;26079;45.958;12.492;2022-09-14T15:29:08;8.30;;;3.33;;
40373;SDS011;26079;45.958;12.492;2022-09-14T15:31:37;6.90;;;2.63;;
40373;SDS011;26079;45.958;12.492;2022-09-14T15:34:04;3.15;;;2.20;;
40373;SDS011;26079;45.958;12.492;2022-09-14T15:36:33;10.35;;;2.28;;
40373;SDS011;26079;45.958;12.492;2022-09-14T15:39:12;3.78;;;3.03;;
40373;SDS011;26079;45.958;12.492;2022-09-14T15:41:38;4.80;;;2.92;;
40373;SDS011;26079;45.958;12.492;2022-09-14T15:44:04;8.77;;;2.63;;
40373;SDS011;26079;45.958;12.492;2022-09-14T15:46:31;3.00;;;2.28;;
40373;SDS011;26079;45.958;12.492;2022-09-14T15:48:57;2.30;;;2.10;;
40373;SDS011;26079;45.958;12.492;2022-09-14T15:51:23;2.70;;;2.47;;
40373;SDS011;26079;45.958;12.492;2022-09-14T15:53:49;6.25;;;3.15;;
40373;SDS011;26079;45.958;12.492;2022-09-14T15:56:16;4.00;;;2.22;;
40373;SDS011;26079;45.958;12.492;2022-09-14T15:58:43;2.97;;;2.60;;
40373;SDS011;26079;45.958;12.492;2022-09-14T16:01:15;2.72;;;2.47;;
40373;SDS011;26079;45.958;12.492;2022-09-14T16:03:42;2.65;;;2.40;;
40373;SDS011;26079;45.958;12.492;2022-09-14T16:06:08;5.78;;;2.45;;
40373;SDS011;26079;45.958;12.492;2022-09-14T16:08:35;3.63;;;1.92;;
40373;SDS011;26079;45.958;12.492;2022-09-14T16:11:02;2.97;;;2.13;;
40373;SDS011;26079;45.958;12.492;2022-09-14T16:13:28;3.25;;;1.98;;
40373;SDS011;26079;45.958;12.492;2022-09-14T16:16:16;2.83;;;2.15;;
40373;SDS011;26079;45.958;12.492;2022-09-14T16:18:41;4.75;;;2.42;;
40373;SDS011;26079;45.958;12.492;2022-09-14T16:21:08;3.15;;;2.10;;
40373;SDS011;26079;45.958;12.492;2022-09-14T16:23:40;9.43;;;2.38;;
40373;SDS011;26079;45.958;12.492;2022-09-14T16:26:11;2.40;;;2.08;;
40373;SDS011;26079;45.958;12.492;2022-09-14T16:31:17;4.95;;;3.15;;
40373;SDS011;26079;45.958;12.492;2022-09-14T16:33:45;2.15;;;1.95;;
40373;SDS011;26079;45.958;12.492;2022-09-14T16:36:20;6.57;;;2.40;;
40373;SDS011;26079;45.958;12.492;2022-09-14T16:38:51;3.75;;;2.53;;
40373;SDS011;26079;45.958;12.492;2022-09-14T16:41:19;7.55;;;2.40;;
40373;SDS011;26079;45.958;12.492;2022-09-14T16:43:45;5.88;;;3.55;;
40373;SDS011;26079;45.958;12.492;2022-09-14T16:46:11;3.08;;;2.63;;
40373;SDS011;26079;45.958;12.492;2022-09-14T16:48:39;2.90;;;2.70;;
40373;SDS011;26079;45.958;12.492;2022-09-14T16:51:07;6.10;;;2.97;;
40373;SDS011;26079;45.958;12.492;2022-09-14T16:53:34;3.28;;;2.95;;
40373;SDS011;26079;45.958;12.492;2022-09-14T16:56:08;6.55;;;3.38;;
40373;SDS011;26079;45.958;12.492;2022-09-14T16:58:42;4.53;;;2.90;;
40373;SDS011;26079;45.958;12.492;2022-09-14T17:01:23;5.60;;;3.42;;
40373;SDS011;26079;45.958;12.492;2022-09-14T17:03:51;4.40;;;3.17;;
40373;SDS011;26079;45.958;12.492;2022-09-14T17:06:20;5.90;;;3.60;;
40373;SDS011;26079;45.958;12.492;2022-09-14T17:08:51;4.72;;;3.40;;
40373;SDS011;26079;45.958;12.492;2022-09-14T17:11:18;4.00;;;3.67;;
40373;SDS011;26079;45.958;12.492;2022-09-14T17:13:44;3.50;;;3.20;;
40373;SDS011;26079;45.958;12.492;2022-09-14T17:16:12;3.47;;;3.17;;
40373;SDS011;26079;45.958;12.492;2022-09-14T17:18:39;4.32;;;3.92;;
40373;SDS011;26079;45.958;12.492;2022-09-14T17:21:07;3.97;;;3.58;;
40373;SDS011;26079;45.958;12.492;2022-09-14T17:23:35;4.40;;;4.00;;
40373;SDS011;26079;45.958;12.492;2022-09-14T17:26:04;3.75;;;3.45;;
40373;SDS011;26079;45.958;12.492;2022-09-14T17:28:35;5.18;;;3.63;;
40373;SDS011;26079;45.958;12.492;2022-09-14T17:31:02;5.13;;;3.85;;
40373;SDS011;26079;45.958;12.492;2022-09-14T17:33:29;8.85;;;4.40;;
40373;SDS011;26079;45.958;12.492;2022-09-14T17:35:56;4.45;;;4.05;;
40373;SDS011;26079;45.958;12.492;2022-09-14T17:38:23;4.40;;;3.80;;
40373;SDS011;26079;45.958;12.492;2022-09-14T17:40:51;4.00;;;3.60;;
40373;SDS011;26079;45.958;12.492;2022-09-14T17:43:17;6.75;;;4.32;;